Moab, UT

8:18 PM MDT on September 23, 2014 (GMT -0600)
MesoWest Portable Traffic 1 UT US UTAH DOT | Change Station
CLOSE
Current Station
Personal Weather Station
Location: Castle Valley, UT
Elevation: 4025 ft
Nearby Weather Stations

Elev 4025 ft 38.57 °N, 109.55 °W | Updated 48 minutes ago

Clear
Clear
76 °F
Feels Like 78 °F
N
1
Wind Variable Wind from SE
Gusts 2.0 mph

Today
High -- | Low -- °F
--% Chance of Precip.
Yesterday
High -- | Low -- °F
Precip. -- in
7:06 AM 7:13 PM
Waning Crescent, 0% visible
Pressure 29.96 in
Visibility 10.0 miles
Clouds Clear
Heat Index 78 °F
Dew Point 47 °F
Humidity 36%
Rainfall -999.00 in
Snow Depth 0 in , 0 in , 0 in
UV 0 out of 12
Pollen 5.10 out of 12
Air Quality Not available.
Flu Activity Not available.
METAR KCNY 240153Z AUTO 31003KT 10SM CLR 23/07 A3009 RMK AO2 SLP144 T02330067

More Conditions Fewer Conditions

Pressure 29.96 in
Visibility 10.0 miles
Clouds Clear
Heat Index 78 °F
Dew Point 47 °F
Humidity 36%
Rainfall -999.00 in
Snow Depth 0 in , 0 in , 0 in
UV 0 out of 12
Pollen 5.10 out of 12
Air Quality Not available.
Flu Activity Not available.
METAR KCNY 240153Z AUTO 31003KT 10SM CLR 23/07 A3009 RMK AO2 SLP144 T02330067

More Conditions Fewer Conditions

10-Day Weather Forecast

Almanac

Astronomy

Sep. 23, 2014 Rise Set
Actual Time 7:06 AM MDT 7:13 PM MDT
Civil Twilight 6:40 AM MDT 7:39 PM MDT
Nautical Twilight 6:09 AM MDT 8:10 PM MDT
Astronomical Twilight 5:37 AM MDT 8:42 PM MDT
Moon 6:34 AM MDT (9/23) 6:54 PM MDT (9/23)
Length of Visible Light 12h 59m
Length of Day
12h 06m
Tomorrow will be 2m 29s shorter.
Waning Crescent, 0% of the Moon is Illuminated
Today
Waning Crescent
Sep 24
New
Oct 1
First Quarter
Oct 8
Full
Oct 15
Last Quarter

Today's Extremes

State Highs State Lows

Community

WunderPhotos

Upload Photos

1,755,853 photos uploaded!

Nearby

Snow Depth

Station Depth Elevation
Ben Lomond Trail 0 in 6000 ft
Mosby Mountain 0 in 9500 ft
Trout Creek 0 in 9400 ft
Tony Grove Lake 0 in 8400 ft
Temple Fork 0 in 7406 ft

Earthquake Activity

City Distance Mag. Time & Date
No recent earthquake activity has been reported nearby.
Minimum magnitude displayed is 2.5.

Coastal Water Temperatures

Place Temperature
No Stations Reporting

Nearby Weather Stations